Time;durP1;ratioP1;P1;durP2;ratioP2;P2;SDS_P1;SDS_P2;PMS_P1;PMS_P2;Temp;Humidity;BMP_temperature;BMP_pressure;BME280_temperature;BME280_humidity;BME280_pressure;Samples;Min_cycle;Max_cycle;Signal;HPM_P1;HPM_P2
2022/04/17 00:02:18;;;;;;;4.03;3.63;;;;;;;;;;5006925;28;20199;-70
2022/04/17 00:04:43;;;;;;;4.33;3.60;;;;;;;;;;5013005;28;20193;-70
2022/04/17 00:07:08;;;;;;;5.83;3.23;;;;;;;;;;5015567;28;20289;-70
2022/04/17 00:09:33;;;;;;;4.80;3.70;;;;;;;;;;5014423;28;20183;-69
2022/04/17 00:12:01;;;;;;;5.37;3.70;;;;;;;;;;5014077;28;20168;-68
2022/04/17 00:14:26;;;;;;;3.73;2.87;;;;;;;;;;5014704;28;20229;-69
2022/04/17 00:16:51;;;;;;;8.83;3.67;;;;;;;;;;5014877;28;20179;-69
2022/04/17 00:19:16;;;;;;;4.70;3.40;;;;;;;;;;5002964;28;20191;-69
2022/04/17 00:21:41;;;;;;;4.40;3.53;;;;;;;;;;5015116;28;20631;-70
2022/04/17 00:24:08;;;;;;;5.90;3.63;;;;;;;;;;5014218;28;20641;-70
2022/04/17 00:26:33;;;;;;;4.23;3.80;;;;;;;;;;5010646;28;20194;-70
2022/04/17 00:28:59;;;;;;;5.35;3.42;;;;;;;;;;5012558;28;20186;-71
2022/04/17 00:31:24;;;;;;;6.77;4.37;;;;;;;;;;5013888;28;20704;-71
2022/04/17 00:33:49;;;;;;;4.65;4.13;;;;;;;;;;5012443;28;20249;-70
2022/04/17 00:36:14;;;;;;;4.68;4.05;;;;;;;;;;5008973;28;20651;-70
2022/04/17 00:38:39;;;;;;;5.03;4.40;;;;;;;;;;5009594;28;20191;-71
2022/04/17 00:41:05;;;;;;;4.87;3.93;;;;;;;;;;5014831;28;20199;-69
2022/04/17 00:43:31;;;;;;;6.07;4.07;;;;;;;;;;5004925;28;20278;-69
2022/04/17 00:45:57;;;;;;;5.17;4.30;;;;;;;;;;5008475;28;20195;-71
2022/04/17 00:48:22;;;;;;;4.37;3.97;;;;;;;;;;5007482;28;20269;-69
2022/04/17 00:50:49;;;;;;;7.17;4.07;;;;;;;;;;5013613;28;20206;-69
2022/04/17 00:53:14;;;;;;;5.47;4.70;;;;;;;;;;5006957;28;20182;-70
2022/04/17 00:55:40;;;;;;;6.43;4.57;;;;;;;;;;5011242;28;20172;-70
2022/04/17 00:58:05;;;;;;;5.87;4.30;;;;;;;;;;5008886;28;20185;-69
2022/04/17 01:00:33;;;;;;;5.67;4.50;;;;;;;;;;5006725;28;20206;-70
2022/04/17 01:02:58;;;;;;;6.60;4.57;;;;;;;;;;5013711;28;20213;-68
2022/04/17 01:05:23;;;;;;;6.40;4.70;;;;;;;;;;5011824;28;20641;-68
2022/04/17 01:07:49;;;;;;;6.40;4.93;;;;;;;;;;5011979;28;20178;-69
2022/04/17 01:10:15;;;;;;;5.77;4.33;;;;;;;;;;5011744;28;20191;-69
2022/04/17 01:12:40;;;;;;;5.00;4.50;;;;;;;;;;5014206;28;20221;-71
2022/04/17 01:15:05;;;;;;;5.07;3.80;;;;;;;;;;5013930;28;20175;-69
2022/04/17 01:17:30;;;;;;;5.20;4.70;;;;;;;;;;5013654;28;20558;-68
2022/04/17 01:19:56;;;;;;;6.70;4.53;;;;;;;;;;5014181;28;20226;-70
2022/04/17 01:22:21;;;;;;;5.77;4.17;;;;;;;;;;5013783;28;20549;-69
2022/04/17 01:27:30;;;;;;;5.53;4.77;;;;;;;;;;5012516;28;20583;-69
2022/04/17 01:29:55;;;;;;;5.67;4.83;;;;;;;;;;5012222;28;20207;-68
2022/04/17 01:32:21;;;;;;;4.90;4.33;;;;;;;;;;5012819;28;20187;-69
2022/04/17 01:34:46;;;;;;;7.30;5.53;;;;;;;;;;5009806;28;20180;-69
2022/04/17 01:37:12;;;;;;;6.17;4.70;;;;;;;;;;5008856;28;20584;-70
2022/04/17 01:39:37;;;;;;;6.83;5.17;;;;;;;;;;5008815;28;20258;-70
2022/04/17 01:42:02;;;;;;;5.87;5.00;;;;;;;;;;5009591;28;20191;-69
2022/04/17 01:44:28;;;;;;;7.23;5.20;;;;;;;;;;5010998;28;20248;-70
2022/04/17 01:46:54;;;;;;;5.87;4.90;;;;;;;;;;5009967;28;20583;-70
2022/04/17 01:49:20;;;;;;;6.37;5.37;;;;;;;;;;5009237;28;20183;-69
2022/04/17 01:51:46;;;;;;;8.63;5.47;;;;;;;;;;5009410;28;20210;-69
2022/04/17 01:54:13;;;;;;;7.47;5.67;;;;;;;;;;5007850;28;20179;-69
2022/04/17 01:56:39;;;;;;;6.77;5.53;;;;;;;;;;5011698;28;20206;-70
2022/04/17 01:59:05;;;;;;;7.07;5.50;;;;;;;;;;5004594;28;20187;-69
2022/04/17 02:01:30;;;;;;;6.27;5.23;;;;;;;;;;5011330;28;20294;-70
2022/04/17 02:03:56;;;;;;;7.00;5.17;;;;;;;;;;5012662;28;20198;-69
2022/04/17 02:06:21;;;;;;;8.43;5.73;;;;;;;;;;5005058;28;20217;-71
2022/04/17 02:08:46;;;;;;;6.50;5.50;;;;;;;;;;5005157;28;20179;-69
2022/04/17 02:11:12;;;;;;;7.97;5.85;;;;;;;;;;5004799;28;20290;-69
2022/04/17 02:13:38;;;;;;;7.73;5.43;;;;;;;;;;5010459;28;20182;-69
2022/04/17 02:16:03;;;;;;;6.20;5.60;;;;;;;;;;5007551;28;20182;-69
2022/04/17 02:18:29;;;;;;;6.77;6.10;;;;;;;;;;5011293;28;20249;-69
2022/04/17 02:20:54;;;;;;;6.77;5.93;;;;;;;;;;5012192;28;20548;-69
2022/04/17 02:23:19;;;;;;;8.53;5.70;;;;;;;;;;5011612;28;20190;-69
2022/04/17 02:25:44;;;;;;;6.80;5.20;;;;;;;;;;5008939;28;20214;-70
2022/04/17 02:28:09;;;;;;;7.23;5.97;;;;;;;;;;5010594;28;20171;-70
2022/04/17 02:30:35;;;;;;;8.43;6.27;;;;;;;;;;5012216;28;20199;-70
2022/04/17 02:33:00;;;;;;;8.17;5.90;;;;;;;;;;5011306;28;20238;-68
2022/04/17 02:35:25;;;;;;;7.90;7.05;;;;;;;;;;5006797;28;20258;-71
2022/04/17 02:37:51;;;;;;;7.70;6.77;;;;;;;;;;5020214;28;20629;-68
2022/04/17 02:40:16;;;;;;;7.40;6.30;;;;;;;;;;5006236;28;20207;-69
2022/04/17 02:42:42;;;;;;;7.60;6.00;;;;;;;;;;5008186;28;20576;-69
2022/04/17 02:45:07;;;;;;;6.77;6.07;;;;;;;;;;5012422;28;20179;-69
2022/04/17 02:47:45;;;;;;;9.47;6.67;;;;;;;;;;5006217;28;20785;-71
2022/04/17 02:50:11;;;;;;;7.33;6.43;;;;;;;;;;5005412;28;20281;-68
2022/04/17 02:52:36;;;;;;;9.93;7.03;;;;;;;;;;5007171;28;20599;-69
2022/04/17 02:55:02;;;;;;;8.60;6.73;;;;;;;;;;5008875;28;20548;-69
2022/04/17 02:57:28;;;;;;;9.23;6.70;;;;;;;;;;5010913;28;20183;-69
2022/04/17 02:59:53;;;;;;;8.47;6.80;;;;;;;;;;5011005;28;20207;-70
2022/04/17 03:07:45;;;;;;;9.87;7.30;;;;;;;;;;5008413;28;20241;-69
2022/04/17 03:10:11;;;;;;;8.53;6.33;;;;;;;;;;5011622;28;20624;-69
2022/04/17 03:12:36;;;;;;;8.37;6.77;;;;;;;;;;5006973;28;20179;-69
2022/04/17 03:15:01;;;;;;;7.23;6.17;;;;;;;;;;5008691;28;20210;-69
2022/04/17 03:17:27;;;;;;;10.00;7.13;;;;;;;;;;5008297;28;20183;-68
2022/04/17 03:19:52;;;;;;;8.70;6.83;;;;;;;;;;5009559;28;20220;-69
2022/04/17 03:22:20;;;;;;;10.30;7.30;;;;;;;;;;5003845;28;20203;-69
2022/04/17 03:24:45;;;;;;;12.53;8.73;;;;;;;;;;5011357;28;20245;-69
2022/04/17 03:27:10;;;;;;;10.32;7.43;;;;;;;;;;5006674;28;20207;-69
2022/04/17 03:29:35;;;;;;;9.17;7.20;;;;;;;;;;5002695;28;20186;-69
2022/04/17 03:32:01;;;;;;;8.63;6.95;;;;;;;;;;5010651;28;20186;-69
2022/04/17 03:34:27;;;;;;;9.00;7.90;;;;;;;;;;5011133;28;20187;-69
2022/04/17 03:36:52;;;;;;;12.67;7.30;;;;;;;;;;5009219;28;20254;-69
2022/04/17 03:39:17;;;;;;;9.10;7.30;;;;;;;;;;5005472;28;20617;-69
2022/04/17 03:41:42;;;;;;;8.30;7.28;;;;;;;;;;5003307;28;20213;-68
2022/04/17 03:44:07;;;;;;;9.97;7.03;;;;;;;;;;5002922;28;20247;-69
2022/04/17 03:46:33;;;;;;;9.13;7.45;;;;;;;;;;5008429;28;20203;-69
2022/04/17 03:48:58;;;;;;;11.50;7.70;;;;;;;;;;5005363;28;20237;-69
2022/04/17 03:51:23;;;;;;;9.33;7.57;;;;;;;;;;5002462;28;20788;-70
2022/04/17 03:53:49;;;;;;;10.27;7.20;;;;;;;;;;5009042;28;20201;-70
2022/04/17 03:56:14;;;;;;;9.77;7.03;;;;;;;;;;5008047;28;20199;-69
2022/04/17 03:58:39;;;;;;;9.88;7.70;;;;;;;;;;5009412;28;20175;-70
2022/04/17 04:01:04;;;;;;;9.52;7.50;;;;;;;;;;5009158;28;20228;-69
2022/04/17 04:03:29;;;;;;;10.13;7.93;;;;;;;;;;5011211;28;20650;-68
2022/04/17 04:05:55;;;;;;;9.13;7.30;;;;;;;;;;5010091;28;20218;-70
2022/04/17 04:08:21;;;;;;;10.57;7.93;;;;;;;;;;4996067;28;20180;-70
2022/04/17 04:10:46;;;;;;;10.90;8.00;;;;;;;;;;5008951;28;20187;-71
2022/04/17 04:13:11;;;;;;;8.53;6.67;;;;;;;;;;5009972;28;20645;-69
2022/04/17 04:15:36;;;;;;;11.83;7.93;;;;;;;;;;5008658;28;20231;-70
2022/04/17 04:18:01;;;;;;;10.10;7.63;;;;;;;;;;5006680;28;20175;-69
2022/04/17 04:20:26;;;;;;;10.83;8.90;;;;;;;;;;5010623;28;20293;-69
2022/04/17 04:22:54;;;;;;;13.23;9.70;;;;;;;;;;5005167;28;20176;-69
2022/04/17 04:25:19;;;;;;;11.33;8.97;;;;;;;;;;5006775;28;20191;-69
2022/04/17 04:30:28;;;;;;;8.87;6.93;;;;;;;;;;5008127;28;20261;-69
2022/04/17 04:32:56;;;;;;;17.17;8.48;;;;;;;;;;5010721;28;20183;-69
2022/04/17 04:35:21;;;;;;;8.57;7.63;;;;;;;;;;5012945;28;20191;-69
2022/04/17 04:37:46;;;;;;;9.33;7.33;;;;;;;;;;5012883;28;20175;-69
2022/04/17 04:40:11;;;;;;;10.77;8.07;;;;;;;;;;5014025;28;20219;-69
2022/04/17 04:42:36;;;;;;;10.97;8.40;;;;;;;;;;5009679;28;20741;-69
2022/04/17 04:47:45;;;;;;;10.40;8.10;;;;;;;;;;5012324;28;20624;-70
2022/04/17 04:50:11;;;;;;;13.20;7.70;;;;;;;;;;5011129;28;20199;-71
2022/04/17 04:52:36;;;;;;;9.23;7.73;;;;;;;;;;5013541;28;20175;-71
2022/04/17 04:55:02;;;;;;;12.73;8.33;;;;;;;;;;5009643;28;20274;-71
2022/04/17 04:57:27;;;;;;;7.93;7.13;;;;;;;;;;5009425;28;20191;-70
2022/04/17 04:59:52;;;;;;;12.23;7.97;;;;;;;;;;5010961;28;20207;-68
2022/04/17 05:02:17;;;;;;;9.52;7.55;;;;;;;;;;4996882;28;20274;-69
2022/04/17 05:04:43;;;;;;;11.43;7.80;;;;;;;;;;5002429;28;20195;-69
2022/04/17 05:07:08;;;;;;;10.93;8.37;;;;;;;;;;5004267;28;20230;-69
2022/04/17 05:09:33;;;;;;;9.13;7.18;;;;;;;;;;5005232;28;20171;-69
2022/04/17 05:11:59;;;;;;;8.90;7.87;;;;;;;;;;5004275;28;20188;-68
2022/04/17 05:14:24;;;;;;;10.87;7.47;;;;;;;;;;5013357;28;20178;-69
2022/04/17 05:16:49;;;;;;;9.87;7.50;;;;;;;;;;5006751;28;20233;-69
2022/04/17 05:19:24;;;;;;;11.37;8.43;;;;;;;;;;5009728;28;20266;-69
2022/04/17 05:21:51;;;;;;;11.27;7.77;;;;;;;;;;5003486;28;20228;-69
2022/04/17 05:24:17;;;;;;;11.17;7.80;;;;;;;;;;5007256;28;20222;-69
2022/04/17 05:26:43;;;;;;;10.53;8.70;;;;;;;;;;5014131;28;20195;-69
2022/04/17 05:29:08;;;;;;;10.17;8.00;;;;;;;;;;5003144;28;20226;-70
2022/04/17 05:31:33;;;;;;;10.60;7.97;;;;;;;;;;5005599;28;20237;-70
2022/04/17 05:33:58;;;;;;;10.70;7.93;;;;;;;;;;5008263;28;20171;-70
2022/04/17 05:36:23;;;;;;;10.30;7.50;;;;;;;;;;5003161;28;20199;-70
2022/04/17 05:38:49;;;;;;;8.77;7.60;;;;;;;;;;5011497;28;20170;-70
2022/04/17 05:41:14;;;;;;;10.50;8.23;;;;;;;;;;5012959;28;20195;-70
2022/04/17 05:43:40;;;;;;;8.17;7.27;;;;;;;;;;5006294;28;20179;-70
2022/04/17 05:46:05;;;;;;;9.60;7.07;;;;;;;;;;5013565;28;20688;-70
2022/04/17 05:48:30;;;;;;;8.73;7.33;;;;;;;;;;5010579;28;20197;-70
2022/04/17 05:50:55;;;;;;;9.27;7.43;;;;;;;;;;5009796;28;20249;-70
2022/04/17 05:53:21;;;;;;;8.80;7.30;;;;;;;;;;5011632;28;20240;-70
2022/04/17 05:55:46;;;;;;;10.47;7.23;;;;;;;;;;5013883;28;20260;-70
2022/04/17 05:58:11;;;;;;;8.50;7.60;;;;;;;;;;5010386;28;20175;-70
2022/04/17 06:00:37;;;;;;;11.43;7.88;;;;;;;;;;5009872;28;20514;-71
2022/04/17 06:03:02;;;;;;;8.57;6.60;;;;;;;;;;5009870;28;20237;-71
2022/04/17 06:05:28;;;;;;;7.60;6.67;;;;;;;;;;5005988;28;20237;-69
2022/04/17 06:07:53;;;;;;;8.80;7.20;;;;;;;;;;5010081;28;20989;-70
2022/04/17 06:10:18;;;;;;;9.80;7.53;;;;;;;;;;5008893;28;20199;-70
2022/04/17 06:12:43;;;;;;;10.00;7.23;;;;;;;;;;5006536;28;20685;-71
2022/04/17 06:15:09;;;;;;;8.67;7.03;;;;;;;;;;5007431;28;20179;-69
2022/04/17 06:17:38;;;;;;;9.40;6.90;;;;;;;;;;5005878;28;20179;-70
2022/04/17 06:20:07;;;;;;;7.87;6.43;;;;;;;;;;5011631;28;20696;-69
2022/04/17 06:22:33;;;;;;;10.13;6.90;;;;;;;;;;5010962;28;20198;-69
2022/04/17 06:24:59;;;;;;;7.67;6.87;;;;;;;;;;5007587;28;20258;-69
2022/04/17 06:27:24;;;;;;;6.97;6.23;;;;;;;;;;5010514;28;20298;-68
2022/04/17 06:29:49;;;;;;;8.15;6.57;;;;;;;;;;5000197;28;20209;-69
2022/04/17 06:32:14;;;;;;;8.18;6.97;;;;;;;;;;5005700;28;20187;-69
2022/04/17 06:34:39;;;;;;;6.93;6.23;;;;;;;;;;5010783;28;20221;-71
2022/04/17 06:37:05;;;;;;;8.95;6.30;;;;;;;;;;5011533;28;20237;-71
2022/04/17 06:39:30;;;;;;;6.45;5.85;;;;;;;;;;5007149;28;20675;-70
2022/04/17 06:41:57;;;;;;;7.68;5.88;;;;;;;;;;5009990;28;20183;-70
2022/04/17 06:44:22;;;;;;;7.93;6.03;;;;;;;;;;5008794;28;20186;-70
2022/04/17 06:46:47;;;;;;;6.87;5.93;;;;;;;;;;5011149;28;20210;-70
2022/04/17 06:49:13;;;;;;;10.00;5.53;;;;;;;;;;5009010;28;20186;-70
2022/04/17 06:51:38;;;;;;;6.93;6.30;;;;;;;;;;5011570;28;20191;-70
2022/04/17 06:54:05;;;;;;;6.70;5.70;;;;;;;;;;5009452;28;20190;-70
2022/04/17 06:56:30;;;;;;;7.57;5.47;;;;;;;;;;5012575;28;20225;-70
2022/04/17 06:58:55;;;;;;;8.07;5.93;;;;;;;;;;5010468;28;20194;-70
2022/04/17 07:01:20;;;;;;;8.10;5.67;;;;;;;;;;5004834;28;20219;-70
2022/04/17 07:03:46;;;;;;;7.53;6.40;;;;;;;;;;5009806;28;20178;-70
2022/04/17 07:06:11;;;;;;;6.20;5.60;;;;;;;;;;5004526;28;20261;-70
2022/04/17 07:08:36;;;;;;;7.87;5.93;;;;;;;;;;5009904;28;20183;-70
2022/04/17 07:11:02;;;;;;;5.53;4.97;;;;;;;;;;5004738;28;20254;-70
2022/04/17 07:13:27;;;;;;;6.73;5.90;;;;;;;;;;5007674;28;20194;-70
2022/04/17 07:15:52;;;;;;;6.47;5.30;;;;;;;;;;5010295;28;20206;-71
2022/04/17 07:18:17;;;;;;;7.47;6.43;;;;;;;;;;5009569;28;20198;-71
2022/04/17 07:20:43;;;;;;;5.80;5.20;;;;;;;;;;5004864;28;20207;-70
2022/04/17 07:23:08;;;;;;;7.30;6.00;;;;;;;;;;5009449;28;20182;-70
2022/04/17 07:25:33;;;;;;;5.90;5.03;;;;;;;;;;5017484;28;20186;-70
2022/04/17 07:27:59;;;;;;;6.13;5.53;;;;;;;;;;4999856;28;20625;-70
2022/04/17 07:30:26;;;;;;;7.03;5.07;;;;;;;;;;5006532;28;20291;-70
2022/04/17 07:32:56;;;;;;;5.50;5.00;;;;;;;;;;5004598;28;20172;-70
2022/04/17 07:35:22;;;;;;;6.37;4.77;;;;;;;;;;5001300;28;20268;-70
2022/04/17 07:37:50;;;;;;;6.63;5.70;;;;;;;;;;5005089;28;20229;-70
2022/04/17 07:40:18;;;;;;;7.73;5.67;;;;;;;;;;5011619;28;20277;-70
2022/04/17 07:42:44;;;;;;;5.07;4.57;;;;;;;;;;5005912;28;20186;-70
2022/04/17 07:45:09;;;;;;;5.75;4.63;;;;;;;;;;5005246;28;20178;-70
2022/04/17 07:47:34;;;;;;;4.68;4.28;;;;;;;;;;5005629;28;20199;-70
2022/04/17 07:50:00;;;;;;;5.75;5.05;;;;;;;;;;5008720;28;20245;-70
2022/04/17 07:52:25;;;;;;;5.18;4.68;;;;;;;;;;5010700;28;20186;-70
2022/04/17 07:54:50;;;;;;;5.93;4.67;;;;;;;;;;5005165;28;20171;-70
2022/04/17 07:57:15;;;;;;;5.10;4.57;;;;;;;;;;5003326;28;20782;-70
2022/04/17 07:59:41;;;;;;;5.47;4.97;;;;;;;;;;5006668;28;20450;-70
2022/04/17 08:02:22;;;;;;;5.25;4.40;;;;;;;;;;5004937;28;20565;-71
2022/04/17 08:04:48;;;;;;;4.88;4.38;;;;;;;;;;5005341;28;20178;-69
2022/04/17 08:07:14;;;;;;;6.18;4.60;;;;;;;;;;5012910;28;20198;-69
2022/04/17 08:09:39;;;;;;;5.53;4.90;;;;;;;;;;5011224;28;20210;-70
2022/04/17 08:12:04;;;;;;;5.18;4.32;;;;;;;;;;5008876;28;20425;-71
2022/04/17 08:14:29;;;;;;;5.35;4.35;;;;;;;;;;5018512;28;20436;-71
2022/04/17 08:16:54;;;;;;;4.88;4.45;;;;;;;;;;5010671;28;20190;-68
2022/04/17 08:19:19;;;;;;;5.30;4.23;;;;;;;;;;5006068;28;20205;-71
2022/04/17 08:21:45;;;;;;;4.70;4.30;;;;;;;;;;5010453;28;20453;-69
2022/04/17 08:24:10;;;;;;;5.28;4.75;;;;;;;;;;5008168;28;20434;-70
2022/04/17 08:26:35;;;;;;;5.03;4.45;;;;;;;;;;5012234;28;20464;-70
2022/04/17 08:29:00;;;;;;;5.40;4.65;;;;;;;;;;5005475;28;20520;-70
2022/04/17 08:31:25;;;;;;;6.68;5.57;;;;;;;;;;5009900;28;20212;-68
2022/04/17 08:33:50;;;;;;;4.82;4.43;;;;;;;;;;5014482;28;20507;-70
2022/04/17 08:36:16;;;;;;;5.70;4.85;;;;;;;;;;5012950;28;20182;-69
2022/04/17 08:38:42;;;;;;;5.40;4.50;;;;;;;;;;5013889;28;20197;-69
2022/04/17 08:41:08;;;;;;;6.32;4.70;;;;;;;;;;5013323;28;20416;-68
2022/04/17 08:43:34;;;;;;;5.85;5.22;;;;;;;;;;4993232;28;20680;-69
2022/04/17 08:45:59;;;;;;;4.63;4.22;;;;;;;;;;5001605;28;20207;-69
2022/04/17 08:48:26;;;;;;;6.00;4.80;;;;;;;;;;5006473;28;20252;-69
2022/04/17 08:50:54;;;;;;;5.72;4.00;;;;;;;;;;5004396;28;21003;-68
2022/04/17 08:53:20;;;;;;;5.85;5.28;;;;;;;;;;5008872;28;21501;-69
2022/04/17 08:55:45;;;;;;;5.53;4.82;;;;;;;;;;5011274;28;20210;-69
2022/04/17 08:58:11;;;;;;;5.18;4.68;;;;;;;;;;5007707;28;20261;-69
2022/04/17 09:00:36;;;;;;;4.75;4.35;;;;;;;;;;5010136;28;20591;-69
2022/04/17 09:03:02;;;;;;;5.40;4.90;;;;;;;;;;5011270;28;20245;-70
2022/04/17 09:05:30;;;;;;;6.43;5.78;;;;;;;;;;5011034;28;20186;-69
2022/04/17 09:07:55;;;;;;;7.82;5.15;;;;;;;;;;5010919;28;20653;-69
2022/04/17 09:10:23;;;;;;;5.63;5.03;;;;;;;;;;5006327;28;20261;-69
2022/04/17 09:12:50;;;;;;;5.25;4.72;;;;;;;;;;5008575;28;20233;-69
2022/04/17 09:15:15;;;;;;;5.28;4.75;;;;;;;;;;5010572;28;20181;-68
2022/04/17 09:17:42;;;;;;;6.35;4.63;;;;;;;;;;5006415;28;20330;-69
2022/04/17 09:20:17;;;;;;;5.03;4.63;;;;;;;;;;5009913;28;20195;-69
2022/04/17 09:22:50;;;;;;;5.57;5.07;;;;;;;;;;5007295;28;20595;-68
2022/04/17 09:25:15;;;;;;;4.75;4.32;;;;;;;;;;4997831;28;20191;-68
2022/04/17 09:27:53;;;;;;;5.00;4.57;;;;;;;;;;4999241;28;20202;-68
2022/04/17 09:30:26;;;;;;;5.07;4.03;;;;;;;;;;5008302;28;20574;-68
2022/04/17 09:32:52;;;;;;;5.05;4.60;;;;;;;;;;5010870;28;20611;-68
2022/04/17 09:35:20;;;;;;;4.93;4.50;;;;;;;;;;5010750;28;20215;-68
2022/04/17 09:37:46;;;;;;;4.60;4.20;;;;;;;;;;5009188;28;20194;-68
2022/04/17 09:40:11;;;;;;;4.88;4.47;;;;;;;;;;5007320;28;20194;-68
2022/04/17 09:42:36;;;;;;;4.72;3.88;;;;;;;;;;5009844;28;20252;-69
2022/04/17 09:45:06;;;;;;;4.83;4.43;;;;;;;;;;5005828;28;20309;-69
2022/04/17 09:47:31;;;;;;;4.55;4.15;;;;;;;;;;5010036;28;20463;-68
2022/04/17 09:50:01;;;;;;;5.88;4.63;;;;;;;;;;5012618;28;20203;-69
2022/04/17 09:52:33;;;;;;;5.82;4.72;;;;;;;;;;5009740;28;20175;-69
2022/04/17 09:54:59;;;;;;;5.22;4.20;;;;;;;;;;5010601;28;20187;-69
2022/04/17 09:57:30;;;;;;;5.30;4.60;;;;;;;;;;5008190;28;20189;-69
2022/04/17 09:59:56;;;;;;;4.82;4.20;;;;;;;;;;5011324;28;20237;-69
2022/04/17 10:02:23;;;;;;;5.00;4.60;;;;;;;;;;5010512;28;20608;-69
2022/04/17 10:04:48;;;;;;;4.72;4.32;;;;;;;;;;5012990;28;20171;-68
2022/04/17 10:07:14;;;;;;;4.40;4.00;;;;;;;;;;5011153;28;20199;-68
2022/04/17 10:09:40;;;;;;;3.70;3.40;;;;;;;;;;5013674;28;20171;-69
2022/04/17 10:12:06;;;;;;;3.67;3.38;;;;;;;;;;5011302;28;20179;-69
2022/04/17 10:14:32;;;;;;;4.15;3.75;;;;;;;;;;5011806;28;20555;-69
2022/04/17 10:16:57;;;;;;;4.00;3.60;;;;;;;;;;5012657;28;20233;-69
2022/04/17 10:19:24;;;;;;;4.85;4.35;;;;;;;;;;5009687;28;20606;-69
2022/04/17 10:21:50;;;;;;;4.40;3.60;;;;;;;;;;5016832;28;20203;-68
2022/04/17 10:24:16;;;;;;;4.80;3.90;;;;;;;;;;5010377;28;20185;-68
2022/04/17 10:26:45;;;;;;;4.82;3.63;;;;;;;;;;5008452;28;20199;-68
2022/04/17 10:29:13;;;;;;;3.97;3.65;;;;;;;;;;5004784;28;20182;-67
2022/04/17 10:31:58;;;;;;;5.97;4.03;;;;;;;;;;5018097;28;20194;-68
2022/04/17 10:34:33;;;;;;;4.65;3.40;;;;;;;;;;5007021;28;20257;-68
2022/04/17 10:37:25;;;;;;;3.97;3.58;;;;;;;;;;5008340;28;20563;-68
2022/04/17 10:39:51;;;;;;;7.57;4.20;;;;;;;;;;4991045;28;20234;-70
2022/04/17 10:42:16;;;;;;;4.22;3.65;;;;;;;;;;5008620;28;20552;-69
2022/04/17 10:44:42;;;;;;;4.22;3.83;;;;;;;;;;5010254;28;20175;-68
2022/04/17 10:47:20;;;;;;;4.25;3.95;;;;;;;;;;5011940;28;20207;-69
2022/04/17 10:49:53;;;;;;;4.72;4.07;;;;;;;;;;5008340;28;20195;-68
2022/04/17 10:52:26;;;;;;;4.63;4.15;;;;;;;;;;5015886;28;20190;-69
2022/04/17 10:54:51;;;;;;;4.38;3.97;;;;;;;;;;5011943;28;20246;-68
2022/04/17 10:57:21;;;;;;;4.22;3.83;;;;;;;;;;5011033;28;20178;-69
2022/04/17 10:59:46;;;;;;;5.55;3.55;;;;;;;;;;5007776;28;20210;-69
2022/04/17 11:02:18;;;;;;;4.03;3.63;;;;;;;;;;5010100;28;20186;-69
2022/04/17 11:04:50;;;;;;;3.83;3.53;;;;;;;;;;5007968;28;20424;-69
2022/04/17 11:07:15;;;;;;;3.90;3.60;;;;;;;;;;5003195;28;20278;-68
2022/04/17 11:09:42;;;;;;;4.37;3.50;;;;;;;;;;5010509;28;20660;-69
2022/04/17 11:12:17;;;;;;;4.00;3.60;;;;;;;;;;5007847;28;20541;-68
2022/04/17 11:14:51;;;;;;;4.47;3.97;;;;;;;;;;5005649;28;20548;-68
2022/04/17 11:17:19;;;;;;;4.18;3.88;;;;;;;;;;4998982;28;20191;-69
2022/04/17 11:19:44;;;;;;;4.28;3.88;;;;;;;;;;5005277;28;20663;-69
2022/04/17 11:22:15;;;;;;;4.78;4.38;;;;;;;;;;4996204;28;20175;-68
2022/04/17 11:24:55;;;;;;;4.20;3.83;;;;;;;;;;5007482;28;20222;-68
2022/04/17 11:27:35;;;;;;;4.05;3.65;;;;;;;;;;5008423;28;20684;-68
2022/04/17 11:30:01;;;;;;;4.03;3.70;;;;;;;;;;4993075;28;20209;-68
2022/04/17 11:32:29;;;;;;;4.20;3.80;;;;;;;;;;5005229;28;20296;-68
2022/04/17 11:34:55;;;;;;;7.40;3.70;;;;;;;;;;5001241;28;20259;-68
2022/04/17 11:37:22;;;;;;;3.72;3.42;;;;;;;;;;5006457;28;20789;-68
2022/04/17 11:39:47;;;;;;;4.35;3.95;;;;;;;;;;5007245;28;20253;-68
2022/04/17 11:42:12;;;;;;;4.30;3.58;;;;;;;;;;5008113;28;20261;-68
2022/04/17 11:44:44;;;;;;;4.20;3.90;;;;;;;;;;5007157;28;20720;-68
2022/04/17 11:47:16;;;;;;;5.25;4.53;;;;;;;;;;5012328;28;20215;-68
2022/04/17 11:49:41;;;;;;;4.32;3.92;;;;;;;;;;5005191;28;20253;-68
2022/04/17 11:52:17;;;;;;;4.50;3.70;;;;;;;;;;5006334;28;20202;-69
2022/04/17 11:54:43;;;;;;;5.20;3.95;;;;;;;;;;5006907;28;20543;-68
2022/04/17 11:57:08;;;;;;;4.70;4.20;;;;;;;;;;5008740;28;20704;-68
2022/04/17 11:59:45;;;;;;;4.80;4.40;;;;;;;;;;5008984;28;20202;-68
2022/04/17 12:02:16;;;;;;;4.93;4.43;;;;;;;;;;5009894;28;20681;-68
2022/04/17 12:04:42;;;;;;;4.85;4.40;;;;;;;;;;5010213;28;20321;-68
2022/04/17 12:07:07;;;;;;;5.20;4.57;;;;;;;;;;5012735;28;20546;-68
2022/04/17 12:09:32;;;;;;;4.65;4.25;;;;;;;;;;5009142;28;20264;-68
2022/04/17 12:11:58;;;;;;;6.23;4.97;;;;;;;;;;5007018;28;20175;-68
2022/04/17 12:14:30;;;;;;;4.43;4.03;;;;;;;;;;5008987;28;20428;-68
2022/04/17 12:16:55;;;;;;;4.50;4.07;;;;;;;;;;5010820;28;20668;-68
2022/04/17 12:19:20;;;;;;;5.28;4.78;;;;;;;;;;5009474;28;20179;-68
2022/04/17 12:21:46;;;;;;;4.72;4.32;;;;;;;;;;5008440;28;20191;-68
2022/04/17 12:24:11;;;;;;;4.40;4.10;;;;;;;;;;5006101;28;20684;-68
2022/04/17 12:26:36;;;;;;;4.77;3.47;;;;;;;;;;5010217;28;20637;-68
2022/04/17 12:29:03;;;;;;;4.07;3.63;;;;;;;;;;5008155;28;20436;-68
2022/04/17 12:31:29;;;;;;;4.45;4.05;;;;;;;;;;5003805;28;20218;-68
2022/04/17 12:34:08;;;;;;;3.57;3.27;;;;;;;;;;5008862;28;20653;-68
2022/04/17 12:36:33;;;;;;;3.53;3.10;;;;;;;;;;5001843;28;20559;-69
2022/04/17 12:39:02;;;;;;;3.60;3.00;;;;;;;;;;5005294;28;20607;-68
2022/04/17 12:41:28;;;;;;;3.53;3.22;;;;;;;;;;5004363;28;20207;-68
2022/04/17 12:43:53;;;;;;;3.85;3.10;;;;;;;;;;5005232;28;20614;-69
2022/04/17 12:46:22;;;;;;;3.20;3.00;;;;;;;;;;5008318;28;20211;-68
2022/04/17 12:48:59;;;;;;;3.58;3.15;;;;;;;;;;5009114;28;20253;-68
2022/04/17 12:51:25;;;;;;;2.97;2.67;;;;;;;;;;5008315;28;20203;-68
2022/04/17 12:53:50;;;;;;;5.75;2.92;;;;;;;;;;5012672;28;20216;-68
2022/04/17 12:56:17;;;;;;;3.23;2.93;;;;;;;;;;5016090;28;20526;-68
2022/04/17 12:58:51;;;;;;;2.90;2.67;;;;;;;;;;5010369;28;20516;-69
2022/04/17 13:01:18;;;;;;;5.05;2.70;;;;;;;;;;5008256;28;20240;-68
2022/04/17 13:03:43;;;;;;;4.32;3.05;;;;;;;;;;5011851;28;21060;-68
2022/04/17 13:06:09;;;;;;;6.35;2.90;;;;;;;;;;5012822;28;20202;-68
2022/04/17 13:08:35;;;;;;;4.18;2.78;;;;;;;;;;5009089;28;20175;-66
2022/04/17 13:11:00;;;;;;;3.55;2.75;;;;;;;;;;5011224;28;20207;-66
2022/04/17 13:13:34;;;;;;;6.57;2.67;;;;;;;;;;5011142;28;20179;-67
2022/04/17 13:16:00;;;;;;;4.03;2.90;;;;;;;;;;5012108;28;20906;-67
2022/04/17 13:18:26;;;;;;;3.42;2.95;;;;;;;;;;5010441;28;20261;-67
2022/04/17 13:20:51;;;;;;;2.87;2.67;;;;;;;;;;5013097;28;20203;-67
2022/04/17 13:23:16;;;;;;;4.00;2.70;;;;;;;;;;5010114;28;20780;-67
2022/04/17 13:25:41;;;;;;;2.78;2.53;;;;;;;;;;5012319;28;20471;-67
2022/04/17 13:28:06;;;;;;;4.38;2.70;;;;;;;;;;5008046;28;20545;-67
2022/04/17 13:30:31;;;;;;;4.35;2.75;;;;;;;;;;5011879;28;20191;-66
2022/04/17 13:32:57;;;;;;;4.03;2.90;;;;;;;;;;5008224;28;20286;-67
2022/04/17 13:35:22;;;;;;;3.03;2.73;;;;;;;;;;4999208;28;20273;-67
2022/04/17 13:40:31;;;;;;;3.15;2.88;;;;;;;;;;5011178;28;20209;-67
2022/04/17 13:42:56;;;;;;;4.82;3.20;;;;;;;;;;5011131;28;20202;-66
2022/04/17 13:45:21;;;;;;;3.15;2.83;;;;;;;;;;5012672;28;20178;-67
2022/04/17 13:47:47;;;;;;;3.37;2.97;;;;;;;;;;5010710;28;20611;-67
2022/04/17 13:50:12;;;;;;;2.80;2.60;;;;;;;;;;5008184;28;20539;-67
2022/04/17 13:52:37;;;;;;;3.38;3.08;;;;;;;;;;5001995;28;20523;-66
2022/04/17 13:55:03;;;;;;;2.83;2.50;;;;;;;;;;5010202;28;20181;-67
2022/04/17 13:57:29;;;;;;;3.25;2.78;;;;;;;;;;5014002;28;20202;-67
2022/04/17 13:59:54;;;;;;;4.65;2.85;;;;;;;;;;5008292;28;20234;-67
2022/04/17 14:02:19;;;;;;;4.05;2.75;;;;;;;;;;5011278;28;20187;-67
2022/04/17 14:04:44;;;;;;;4.47;3.27;;;;;;;;;;5010270;28;20198;-67
2022/04/17 14:07:10;;;;;;;3.35;3.05;;;;;;;;;;5007801;28;20452;-67
2022/04/17 14:09:35;;;;;;;4.68;3.08;;;;;;;;;;5008611;28;20183;-67
2022/04/17 14:12:00;;;;;;;3.28;3.03;;;;;;;;;;5010671;28;20175;-67
2022/04/17 14:14:29;;;;;;;3.88;3.58;;;;;;;;;;5009772;28;20291;-67
2022/04/17 14:16:55;;;;;;;3.58;3.28;;;;;;;;;;5010371;28;20199;-68
2022/04/17 14:19:20;;;;;;;5.00;3.77;;;;;;;;;;5011814;28;20192;-67
2022/04/17 14:21:48;;;;;;;6.05;3.55;;;;;;;;;;5011515;28;20202;-68
2022/04/17 14:24:13;;;;;;;4.15;3.75;;;;;;;;;;5008693;28;20182;-68
2022/04/17 14:26:38;;;;;;;5.97;3.42;;;;;;;;;;5011838;28;20207;-68
2022/04/17 14:29:03;;;;;;;3.97;3.67;;;;;;;;;;5010324;28;20454;-67
2022/04/17 14:31:29;;;;;;;3.50;3.20;;;;;;;;;;5006176;28;20212;-67
2022/04/17 14:33:54;;;;;;;4.37;3.53;;;;;;;;;;5009914;28;20194;-67
2022/04/17 14:36:20;;;;;;;3.40;3.10;;;;;;;;;;4995720;28;20490;-66
2022/04/17 14:38:45;;;;;;;4.05;3.65;;;;;;;;;;5008505;28;20191;-67
2022/04/17 14:41:10;;;;;;;3.75;2.85;;;;;;;;;;5009389;28;20235;-67
2022/04/17 14:43:39;;;;;;;3.40;3.10;;;;;;;;;;5009375;28;20186;-67
2022/04/17 14:46:04;;;;;;;3.63;3.28;;;;;;;;;;5004118;28;20594;-67
2022/04/17 14:48:29;;;;;;;4.88;3.67;;;;;;;;;;5006494;28;20179;-67
2022/04/17 14:50:55;;;;;;;2.90;2.70;;;;;;;;;;5010964;28;20268;-67
2022/04/17 14:53:20;;;;;;;5.40;3.90;;;;;;;;;;5004856;28;20520;-66